Main page
Satellite images Climate Cyclones Lightning AirportsFAQ Languages Contact Newsletter About
Weather : Europe Africa North America South America Asia Australia-Oceania Others

4479, Mandalay, Mandalay International Airport

48042

latitude: , longitude: Burma, elevation: 21-59N m


METAR: VYMD 270030Z 16005KT 6000 BKN018 FEW020CB 26/25 Q1004